Time;durP1;ratioP1;P1;durP2;ratioP2;P2;SDS_P1;SDS_P2;PMS_P1;PMS_P2;Temp;Humidity;BMP_temperature;BMP_pressure;BME280_temperature;BME280_humidity;BME280_pressure;Samples;Min_cycle;Max_cycle;Signal;HPM_P1;HPM_P2
2022/08/31 00:04:56;;;;;;;2.05;1.30;;;17.80;99.90;;;;;;5065089;28;20200;-66
2022/08/31 00:07:26;;;;;;;3.28;1.05;;;17.80;99.90;;;;;;5068783;28;20211;-67
2022/08/31 00:09:53;;;;;;;2.88;1.20;;;17.70;99.90;;;;;;5069792;28;20666;-68
2022/08/31 00:12:20;;;;;;;2.30;1.30;;;17.70;99.90;;;;;;5055219;28;20201;-67
2022/08/31 00:14:47;;;;;;;2.00;1.02;;;17.70;99.90;;;;;;5068421;28;20201;-67
2022/08/31 00:17:14;;;;;;;1.92;1.15;;;17.70;99.90;;;;;;5069571;28;20296;-67
2022/08/31 00:19:41;;;;;;;1.85;1.10;;;17.70;99.90;;;;;;5068120;28;20217;-67
2022/08/31 00:22:09;;;;;;;2.95;1.25;;;17.70;99.90;;;;;;5073089;28;20233;-66
2022/08/31 00:24:36;;;;;;;3.33;1.58;;;17.70;99.90;;;;;;5059183;28;20578;-67
2022/08/31 00:27:03;;;;;;;4.55;1.30;;;17.70;99.90;;;;;;5073406;28;20295;-66
2022/08/31 00:29:30;;;;;;;1.42;1.13;;;17.70;99.90;;;;;;5073063;28;20231;-66
2022/08/31 00:31:57;;;;;;;2.42;1.20;;;17.60;99.90;;;;;;5072402;28;20220;-66
2022/08/31 00:34:26;;;;;;;1.77;1.30;;;17.60;99.90;;;;;;5072705;28;20213;-67
2022/08/31 00:36:53;;;;;;;3.15;1.23;;;17.60;99.90;;;;;;5072392;28;20741;-67
2022/08/31 00:39:22;;;;;;;2.63;1.40;;;17.60;99.90;;;;;;5072459;28;20703;-67
2022/08/31 00:41:49;;;;;;;3.42;1.40;;;17.50;99.90;;;;;;5070890;28;20565;-68
2022/08/31 00:44:15;;;;;;;2.92;1.33;;;17.60;99.90;;;;;;5072357;28;20589;-67
2022/08/31 00:46:43;;;;;;;1.63;1.10;;;17.50;99.90;;;;;;5072526;28;20205;-67
2022/08/31 00:49:15;;;;;;;2.20;1.23;;;17.50;99.90;;;;;;5072730;28;20205;-68
2022/08/31 00:51:47;;;;;;;1.85;1.35;;;17.50;99.90;;;;;;5072756;28;20202;-67
2022/08/31 00:54:16;;;;;;;1.67;1.13;;;17.50;99.90;;;;;;5072758;28;20209;-67
2022/08/31 00:56:44;;;;;;;4.78;1.48;;;17.50;99.90;;;;;;5072419;28;20364;-66
2022/08/31 00:59:12;;;;;;;2.10;1.30;;;17.50;99.90;;;;;;5073080;28;20225;-66
2022/08/31 01:01:39;;;;;;;2.88;1.35;;;17.50;99.90;;;;;;5073206;28;20212;-67
2022/08/31 01:04:06;;;;;;;2.25;1.20;;;17.40;99.90;;;;;;5072693;28;20225;-67
2022/08/31 01:06:34;;;;;;;1.77;1.08;;;17.40;99.90;;;;;;5072314;28;20638;-66
2022/08/31 01:09:03;;;;;;;2.47;1.20;;;17.40;99.90;;;;;;5072735;28;20201;-65
2022/08/31 01:11:30;;;;;;;4.32;1.30;;;17.40;99.90;;;;;;5069322;28;20209;-67
2022/08/31 01:13:59;;;;;;;1.73;1.17;;;17.40;99.90;;;;;;5072390;28;20205;-66
2022/08/31 01:16:33;;;;;;;1.45;1.30;;;17.40;99.90;;;;;;5072619;28;20211;-66
2022/08/31 01:19:02;;;;;;;2.35;1.27;;;17.40;99.90;;;;;;5068184;28;20197;-66
2022/08/31 01:21:35;;;;;;;2.67;1.40;;;17.40;99.90;;;;;;5071873;28;20205;-66
2022/08/31 01:24:04;;;;;;;2.75;1.00;;;17.40;99.90;;;;;;5072084;28;20589;-67
2022/08/31 01:26:32;;;;;;;2.88;1.45;;;17.40;99.90;;;;;;5072709;28;20206;-66
2022/08/31 01:29:04;;;;;;;2.78;1.33;;;17.40;99.90;;;;;;5071468;28;20208;-66
2022/08/31 01:31:36;;;;;;;2.53;1.48;;;17.30;99.90;;;;;;5071169;28;20208;-67
2022/08/31 01:34:03;;;;;;;2.38;1.23;;;17.30;99.90;;;;;;5071543;28;20213;-66
2022/08/31 01:36:31;;;;;;;3.10;1.55;;;17.30;99.90;;;;;;5071383;28;20237;-67
2022/08/31 01:38:58;;;;;;;1.60;1.23;;;17.30;99.90;;;;;;5072007;28;20215;-66
2022/08/31 01:41:26;;;;;;;2.42;1.20;;;17.20;99.90;;;;;;5069421;28;20588;-66
2022/08/31 01:43:53;;;;;;;3.63;1.45;;;17.10;99.90;;;;;;5071578;28;20229;-67
2022/08/31 01:46:21;;;;;;;2.03;1.33;;;17.10;99.90;;;;;;5064977;28;20223;-66
2022/08/31 01:48:49;;;;;;;1.75;1.40;;;17.10;99.90;;;;;;5071924;28;20213;-65
2022/08/31 01:51:19;;;;;;;1.55;1.23;;;16.90;99.90;;;;;;5071009;28;20208;-65
2022/08/31 01:53:47;;;;;;;4.25;1.40;;;17.00;99.90;;;;;;5071128;28;20260;-67
2022/08/31 01:56:17;;;;;;;2.72;1.40;;;16.90;99.90;;;;;;5071389;28;20219;-67
2022/08/31 01:58:45;;;;;;;2.67;1.20;;;17.00;99.90;;;;;;5071344;28;20208;-65
2022/08/31 02:01:12;;;;;;;3.70;1.30;;;16.90;99.90;;;;;;5071258;28;20205;-67
2022/08/31 02:03:38;;;;;;;1.77;1.23;;;16.90;99.90;;;;;;5067909;28;20220;-66
2022/08/31 02:06:09;;;;;;;3.28;1.77;;;16.90;99.90;;;;;;5071162;28;20673;-65
2022/08/31 02:08:36;;;;;;;1.80;1.13;;;16.90;99.90;;;;;;5070619;28;20209;-66
2022/08/31 02:11:04;;;;;;;2.08;1.30;;;16.90;99.90;;;;;;5071041;28;20572;-67
2022/08/31 02:13:31;;;;;;;2.60;1.38;;;16.90;99.90;;;;;;5071115;28;20213;-66
2022/08/31 02:16:00;;;;;;;1.48;1.00;;;16.90;99.90;;;;;;5070464;28;20614;-66
2022/08/31 02:18:27;;;;;;;3.28;1.10;;;16.90;99.90;;;;;;5070952;28;20576;-66
2022/08/31 02:20:54;;;;;;;1.88;1.10;;;16.80;99.90;;;;;;5069600;28;20229;-66
2022/08/31 02:23:21;;;;;;;2.45;1.35;;;16.80;99.90;;;;;;5070874;28;20232;-67
2022/08/31 02:25:48;;;;;;;3.40;1.02;;;16.80;99.90;;;;;;5071066;28;20209;-67
2022/08/31 02:28:17;;;;;;;2.40;1.33;;;16.80;99.90;;;;;;5071047;28;20217;-66
2022/08/31 02:30:45;;;;;;;5.15;1.35;;;16.80;99.90;;;;;;5070597;28;20667;-66
2022/08/31 02:33:14;;;;;;;1.95;1.20;;;16.80;99.90;;;;;;5069625;28;20194;-67
2022/08/31 02:35:42;;;;;;;2.55;1.48;;;16.80;99.90;;;;;;5069256;28;20244;-65
2022/08/31 02:38:10;;;;;;;2.80;1.58;;;16.70;99.90;;;;;;5070891;28;20228;-66
2022/08/31 02:40:39;;;;;;;1.98;1.55;;;16.70;99.90;;;;;;5070884;28;20212;-67
2022/08/31 02:43:07;;;;;;;3.67;1.27;;;16.70;99.90;;;;;;5069940;28;20417;-66
2022/08/31 02:45:34;;;;;;;2.10;1.40;;;16.70;99.90;;;;;;5070441;28;20531;-66
2022/08/31 02:48:01;;;;;;;1.52;1.35;;;16.70;99.90;;;;;;5071055;28;20206;-67
2022/08/31 02:50:29;;;;;;;2.55;1.40;;;16.70;99.90;;;;;;5070694;28;20197;-66
2022/08/31 02:52:56;;;;;;;5.57;1.25;;;16.70;99.90;;;;;;5069723;28;20256;-67
2022/08/31 02:55:23;;;;;;;3.03;1.58;;;16.70;99.90;;;;;;5070029;28;20423;-67
2022/08/31 02:57:51;;;;;;;4.18;1.30;;;16.60;99.90;;;;;;5070313;28;20209;-66
2022/08/31 03:00:19;;;;;;;2.25;1.48;;;16.60;99.90;;;;;;5069867;28;20220;-67
2022/08/31 03:02:47;;;;;;;1.90;1.20;;;16.60;99.90;;;;;;5069179;28;20209;-67
2022/08/31 03:05:14;;;;;;;1.85;1.20;;;16.60;99.90;;;;;;5070220;28;20632;-66
2022/08/31 03:07:42;;;;;;;3.15;1.08;;;16.60;99.90;;;;;;5069142;28;20206;-67
2022/08/31 03:10:12;;;;;;;3.65;1.60;;;16.60;99.90;;;;;;5070221;28;20209;-66
2022/08/31 03:12:39;;;;;;;2.92;1.45;;;16.60;99.90;;;;;;5070809;28;20288;-66
2022/08/31 03:15:08;;;;;;;2.10;1.10;;;16.60;99.90;;;;;;5070278;28;20206;-66
2022/08/31 03:17:35;;;;;;;4.20;1.00;;;16.60;99.90;;;;;;5070144;28;20201;-66
2022/08/31 03:20:04;;;;;;;3.65;1.30;;;16.60;99.90;;;;;;5068469;28;20209;-66
2022/08/31 03:22:31;;;;;;;3.65;1.30;;;16.60;99.90;;;;;;5067280;28;20225;-66
2022/08/31 03:25:00;;;;;;;12.90;1.63;;;16.60;99.90;;;;;;5068995;28;20240;-66
2022/08/31 03:27:28;;;;;;;3.42;1.35;;;16.60;99.90;;;;;;5070012;28;20216;-65
2022/08/31 03:29:55;;;;;;;3.70;1.43;;;16.60;99.90;;;;;;5070061;28;20209;-66
2022/08/31 03:32:22;;;;;;;2.15;1.30;;;16.70;99.90;;;;;;5069381;28;20209;-65
2022/08/31 03:34:52;;;;;;;2.50;1.13;;;16.70;99.90;;;;;;5070120;28;20201;-64
2022/08/31 03:37:20;;;;;;;3.53;1.05;;;16.70;99.90;;;;;;5069330;28;20205;-66
2022/08/31 03:39:47;;;;;;;1.50;0.85;;;16.70;99.90;;;;;;5069674;28;20292;-66
2022/08/31 03:42:15;;;;;;;1.58;1.10;;;16.70;99.90;;;;;;5068589;28;20692;-66
2022/08/31 03:44:42;;;;;;;2.60;1.40;;;16.80;99.90;;;;;;5069651;28;20693;-66
2022/08/31 03:47:09;;;;;;;3.15;1.08;;;16.80;99.90;;;;;;5069531;28;20214;-66
2022/08/31 03:49:36;;;;;;;2.10;1.25;;;16.70;99.90;;;;;;5069413;28;20217;-67
2022/08/31 03:52:03;;;;;;;3.80;1.48;;;16.80;99.90;;;;;;5069623;28;20545;-66
2022/08/31 03:54:30;;;;;;;3.95;1.20;;;16.80;99.90;;;;;;5069875;28;20206;-67
2022/08/31 03:56:57;;;;;;;2.65;1.55;;;16.80;99.90;;;;;;5072437;28;20216;-66
2022/08/31 03:59:25;;;;;;;1.42;1.25;;;16.80;99.90;;;;;;5073679;28;20205;-66
2022/08/31 04:01:51;;;;;;;3.50;1.17;;;16.80;99.90;;;;;;5073123;28;20209;-67
2022/08/31 04:04:18;;;;;;;2.65;1.13;;;16.80;99.90;;;;;;5067309;28;20240;-66
2022/08/31 04:06:45;;;;;;;4.30;1.20;;;16.90;99.90;;;;;;5066999;28;20224;-66
2022/08/31 04:09:12;;;;;;;3.05;1.52;;;16.90;99.90;;;;;;5072839;28;20205;-67
2022/08/31 04:11:41;;;;;;;4.90;1.40;;;16.90;99.90;;;;;;5073002;28;20205;-67
2022/08/31 04:14:08;;;;;;;2.03;1.20;;;16.90;99.90;;;;;;5072138;28;20198;-67
2022/08/31 04:16:37;;;;;;;4.32;2.30;;;16.90;99.90;;;;;;5057734;28;20213;-66
2022/08/31 04:19:04;;;;;;;4.07;1.80;;;17.00;99.90;;;;;;5071984;28;20244;-67
2022/08/31 04:21:31;;;;;;;3.60;1.15;;;17.00;99.90;;;;;;5072240;28;20208;-67
2022/08/31 04:23:59;;;;;;;4.03;1.40;;;17.00;99.90;;;;;;5073290;28;20236;-68
2022/08/31 04:26:29;;;;;;;2.83;0.90;;;17.10;99.90;;;;;;5072792;28;20216;-67
2022/08/31 04:28:56;;;;;;;2.53;1.38;;;17.10;99.90;;;;;;5073166;28;20220;-66
2022/08/31 04:31:24;;;;;;;3.15;1.52;;;17.10;99.90;;;;;;5071770;28;20573;-67
2022/08/31 04:33:55;;;;;;;1.50;1.13;;;17.10;99.90;;;;;;5072542;28;20209;-67
2022/08/31 04:36:24;;;;;;;2.70;1.42;;;17.20;99.90;;;;;;5072045;28;20777;-66
2022/08/31 04:38:52;;;;;;;5.82;1.33;;;17.10;99.90;;;;;;5072541;28;20220;-65
2022/08/31 04:41:21;;;;;;;2.38;1.25;;;17.20;99.90;;;;;;5072370;28;20308;-65
2022/08/31 04:43:52;;;;;;;1.67;1.10;;;17.20;99.90;;;;;;5071932;28;20225;-65
2022/08/31 04:46:20;;;;;;;3.38;1.52;;;17.10;99.90;;;;;;5072413;28;20198;-67
2022/08/31 04:48:47;;;;;;;2.13;1.23;;;17.10;99.90;;;;;;5071381;28;20580;-67
2022/08/31 04:51:17;;;;;;;4.13;1.27;;;17.20;99.90;;;;;;5071673;28;20213;-66
2022/08/31 04:53:45;;;;;;;2.03;1.02;;;17.20;99.90;;;;;;5072365;28;20198;-66
2022/08/31 04:56:14;;;;;;;1.95;1.25;;;17.20;99.90;;;;;;5072857;28;20205;-66
2022/08/31 04:58:42;;;;;;;2.42;1.30;;;17.20;99.90;;;;;;5071845;28;20863;-66
2022/08/31 05:01:10;;;;;;;2.70;1.30;;;17.20;99.90;;;;;;5071755;28;20288;-66
2022/08/31 05:03:36;;;;;;;3.20;1.10;;;17.20;99.90;;;;;;5069404;28;20229;-67
2022/08/31 05:06:04;;;;;;;3.83;1.10;;;17.20;99.90;;;;;;5069799;28;20205;-66
2022/08/31 05:08:33;;;;;;;1.67;0.93;;;17.20;99.90;;;;;;5071488;28;20646;-67
2022/08/31 05:11:09;;;;;;;1.95;1.13;;;17.20;99.90;;;;;;5058283;28;20213;-66
2022/08/31 05:13:36;;;;;;;2.15;0.90;;;17.20;99.90;;;;;;5072366;28;20254;-67
2022/08/31 05:16:04;;;;;;;4.60;1.00;;;17.20;99.90;;;;;;5071953;28;20240;-68
2022/08/31 05:18:31;;;;;;;4.35;1.45;;;17.30;99.90;;;;;;5072000;28;20216;-67
2022/08/31 05:20:58;;;;;;;1.42;1.17;;;17.30;99.90;;;;;;5069897;28;20209;-67
2022/08/31 05:23:25;;;;;;;3.22;1.23;;;17.40;99.90;;;;;;5070412;28;20589;-66
2022/08/31 05:25:53;;;;;;;1.13;1.02;;;17.40;99.90;;;;;;5071328;28;20669;-67
2022/08/31 05:28:22;;;;;;;3.40;1.58;;;17.40;99.90;;;;;;5072044;28;20231;-69
2022/08/31 05:30:48;;;;;;;2.65;1.30;;;17.50;99.90;;;;;;5058608;28;20206;-74
2022/08/31 05:33:15;;;;;;;3.97;1.30;;;17.50;99.90;;;;;;5061917;28;20209;-75
2022/08/31 05:35:43;;;;;;;1.80;1.08;;;17.50;99.90;;;;;;5075602;28;20781;-74
2022/08/31 05:38:10;;;;;;;2.15;1.25;;;17.50;99.90;;;;;;5076260;28;20624;-74
2022/08/31 05:40:37;;;;;;;2.45;1.20;;;17.60;99.90;;;;;;5072490;28;20202;-75
2022/08/31 05:43:05;;;;;;;2.83;1.15;;;17.60;99.90;;;;;;5073933;28;20537;-74
2022/08/31 05:45:32;;;;;;;6.75;1.50;;;17.60;99.90;;;;;;5073116;28;20231;-74
2022/08/31 05:47:59;;;;;;;4.05;1.75;;;17.70;99.90;;;;;;5072053;28;20689;-75
2022/08/31 05:50:25;;;;;;;5.78;1.50;;;17.70;99.90;;;;;;5071133;28;20209;-75
2022/08/31 05:52:52;;;;;;;1.52;1.08;;;17.80;99.90;;;;;;5073736;28;20213;-75
2022/08/31 05:55:19;;;;;;;2.47;1.05;;;17.80;99.90;;;;;;5073437;28;20205;-74
2022/08/31 05:57:46;;;;;;;2.63;1.20;;;17.80;99.90;;;;;;5062858;28;20209;-73
2022/08/31 06:00:15;;;;;;;2.42;1.23;;;17.80;99.90;;;;;;5058548;28;20232;-74
2022/08/31 06:02:42;;;;;;;4.43;1.33;;;17.90;99.90;;;;;;5070909;28;20210;-73
2022/08/31 06:05:09;;;;;;;4.03;1.13;;;17.90;99.90;;;;;;5067246;28;20314;-74
2022/08/31 06:07:36;;;;;;;2.22;1.35;;;17.90;99.90;;;;;;5073625;28;20213;-73
2022/08/31 06:10:04;;;;;;;2.42;1.40;;;17.90;99.90;;;;;;5073985;28;20645;-74
2022/08/31 06:12:33;;;;;;;2.65;1.02;;;17.90;99.90;;;;;;5070155;28;20205;-67
2022/08/31 06:15:00;;;;;;;9.05;1.70;;;17.90;99.90;;;;;;5071044;28;20201;-66
2022/08/31 06:17:28;;;;;;;2.70;1.00;;;18.00;99.90;;;;;;5070418;28;20258;-67
2022/08/31 06:19:56;;;;;;;7.97;1.20;;;18.10;99.90;;;;;;5069787;28;20228;-67
2022/08/31 06:22:23;;;;;;;3.85;1.25;;;18.10;99.90;;;;;;5070387;28;20258;-66
2022/08/31 06:24:50;;;;;;;2.65;1.25;;;18.20;99.90;;;;;;5070095;28;20229;-66
2022/08/31 06:27:18;;;;;;;6.07;1.42;;;18.40;99.90;;;;;;5070014;28;20204;-66
2022/08/31 06:29:45;;;;;;;2.88;1.27;;;18.50;99.90;;;;;;5066241;28;20370;-66
2022/08/31 06:32:12;;;;;;;1.95;0.90;;;18.60;99.90;;;;;;5069105;28;20225;-67
2022/08/31 06:34:41;;;;;;;6.60;1.00;;;18.70;99.90;;;;;;5064869;28;20279;-66
2022/08/31 06:37:10;;;;;;;6.20;1.45;;;18.70;99.90;;;;;;5053399;28;20245;-67
2022/08/31 06:39:37;;;;;;;2.88;0.90;;;18.80;99.90;;;;;;5052336;28;20210;-67
2022/08/31 06:42:04;;;;;;;3.20;1.15;;;18.90;99.90;;;;;;5059687;28;20216;-67
2022/08/31 06:44:31;;;;;;;1.98;0.90;;;18.90;99.90;;;;;;5070218;28;20307;-66
2022/08/31 06:46:58;;;;;;;6.00;1.27;;;19.00;99.90;;;;;;5068369;28;20409;-67
2022/08/31 06:49:25;;;;;;;1.88;1.17;;;19.00;99.90;;;;;;5068911;28;20595;-69
2022/08/31 06:51:53;;;;;;;4.35;1.00;;;19.00;99.90;;;;;;5069051;28;20311;-66
2022/08/31 06:54:20;;;;;;;3.33;0.90;;;19.10;99.90;;;;;;5069850;28;20632;-66
2022/08/31 06:56:47;;;;;;;2.92;1.00;;;19.20;99.90;;;;;;5069601;28;20220;-65
2022/08/31 06:59:13;;;;;;;3.05;0.90;;;19.30;99.90;;;;;;5066541;28;20204;-67
2022/08/31 07:01:40;;;;;;;3.20;1.08;;;19.30;99.90;;;;;;5068630;28;20700;-65
2022/08/31 07:04:09;;;;;;;3.75;1.00;;;19.50;99.90;;;;;;5057660;28;20236;-65
2022/08/31 07:06:39;;;;;;;2.20;0.80;;;19.70;99.90;;;;;;5062647;28;20202;-64
2022/08/31 07:09:09;;;;;;;4.03;1.10;;;19.70;99.90;;;;;;5069028;28;20619;-64
2022/08/31 07:11:39;;;;;;;1.52;1.20;;;19.80;99.90;;;;;;5061475;28;20670;-64
2022/08/31 07:14:07;;;;;;;4.38;0.80;;;19.90;99.90;;;;;;5052201;28;20213;-63
2022/08/31 07:16:34;;;;;;;1.33;0.52;;;19.90;99.90;;;;;;5062715;28;20259;-64
2022/08/31 07:19:03;;;;;;;0.80;0.70;;;19.90;99.90;;;;;;5056242;28;20556;-65
2022/08/31 07:21:32;;;;;;;2.38;1.02;;;19.90;99.90;;;;;;5067545;28;20228;-66
2022/08/31 07:24:04;;;;;;;2.80;0.80;;;20.00;99.90;;;;;;5062532;28;20213;-66
2022/08/31 07:26:35;;;;;;;3.33;1.00;;;20.10;99.90;;;;;;5069511;28;20300;-65
2022/08/31 07:29:05;;;;;;;2.58;1.05;;;20.20;99.90;;;;;;5069513;28;20209;-65
2022/08/31 07:31:39;;;;;;;3.72;0.95;;;20.40;99.90;;;;;;5073150;28;20654;-67
2022/08/31 07:34:06;;;;;;;5.65;1.00;;;20.60;99.90;;;;;;5073344;28;20209;-66
2022/08/31 07:42:07;;;;;;;2.25;1.00;;;20.80;99.90;;;;;;5072838;28;20620;-68
2022/08/31 07:42:10;;;;;;;3.03;0.80;;;21.20;99.90;;;;;;5073251;28;20746;-64
2022/08/31 07:44:37;;;;;;;0.93;0.60;;;21.50;99.90;;;;;;5073050;28;20220;-65
2022/08/31 07:47:10;;;;;;;4.30;0.90;;;21.70;99.90;;;;;;5073443;28;20534;-66
2022/08/31 07:49:38;;;;;;;1.67;0.70;;;21.80;99.90;;;;;;5070358;28;20669;-66
2022/08/31 07:52:05;;;;;;;3.60;1.67;;;21.80;99.90;;;;;;5068597;28;20201;-68
2022/08/31 07:54:33;;;;;;;5.75;1.15;;;21.90;99.90;;;;;;5067075;28;20201;-64
2022/08/31 07:57:03;;;;;;;1.35;0.80;;;22.00;99.90;;;;;;5064933;28;20266;-65
2022/08/31 07:59:33;;;;;;;0.60;0.60;;;22.00;99.90;;;;;;5070493;28;20580;-67
2022/08/31 08:02:02;;;;;;;0.68;0.68;;;22.10;99.90;;;;;;5072300;28;20197;-65
2022/08/31 08:04:29;;;;;;;1.95;0.77;;;22.20;99.40;;;;;;5073284;28;20240;-68
2022/08/31 08:06:59;;;;;;;1.67;0.80;;;22.20;98.30;;;;;;5071413;28;20872;-68
2022/08/31 08:09:28;;;;;;;1.25;0.70;;;22.20;97.90;;;;;;5068210;28;20264;-67
2022/08/31 08:11:57;;;;;;;1.95;0.77;;;22.30;97.90;;;;;;5069944;28;20575;-67
2022/08/31 08:14:24;;;;;;;2.20;0.70;;;22.40;97.20;;;;;;5073728;28;20738;-68
2022/08/31 08:16:52;;;;;;;1.98;0.95;;;22.40;96.90;;;;;;5072856;28;20552;-66
2022/08/31 08:19:19;;;;;;;2.25;1.15;;;22.60;96.30;;;;;;5069753;28;20729;-65
2022/08/31 08:21:47;;;;;;;1.77;0.60;;;22.60;95.80;;;;;;5070154;28;20225;-67
2022/08/31 08:24:14;;;;;;;1.95;0.73;;;22.70;96.00;;;;;;5067221;28;20217;-66
2022/08/31 08:26:43;;;;;;;2.47;0.70;;;22.80;95.30;;;;;;5068820;28;20240;-67
2022/08/31 08:29:10;;;;;;;1.30;0.60;;;22.90;94.50;;;;;;5068628;28;20205;-67
2022/08/31 08:31:37;;;;;;;4.57;0.80;;;22.90;94.50;;;;;;5069151;28;20205;-67
2022/08/31 08:34:06;;;;;;;3.03;0.90;;;23.10;94.40;;;;;;5068629;28;20214;-68
2022/08/31 08:36:34;;;;;;;2.20;0.90;;;23.20;93.50;;;;;;5069326;28;20636;-66
2022/08/31 08:39:04;;;;;;;2.17;0.98;;;23.30;92.60;;;;;;5070680;28;20246;-64
2022/08/31 08:41:34;;;;;;;2.13;1.13;;;23.40;91.80;;;;;;5065736;28;20209;-68
2022/08/31 08:44:03;;;;;;;1.42;0.80;;;23.50;91.50;;;;;;5057650;28;20651;-66
2022/08/31 08:46:35;;;;;;;1.38;0.60;;;23.60;90.70;;;;;;5067099;28;20218;-67
2022/08/31 08:49:14;;;;;;;2.95;1.20;;;23.80;90.30;;;;;;5071377;28;20224;-68
2022/08/31 08:51:42;;;;;;;4.07;0.90;;;23.90;89.20;;;;;;5067935;28;20282;-67
2022/08/31 08:54:12;;;;;;;1.38;0.88;;;24.00;88.30;;;;;;5072807;28;20205;-65
2022/08/31 08:56:45;;;;;;;1.55;0.88;;;24.10;86.90;;;;;;5068416;28;20224;-67
2022/08/31 08:59:13;;;;;;;1.15;0.70;;;24.30;85.20;;;;;;5062720;28;20193;-67
2022/08/31 09:01:45;;;;;;;1.40;0.50;;;24.50;83.90;;;;;;5066779;28;20209;-67
2022/08/31 09:04:25;;;;;;;2.33;1.05;;;24.60;81.30;;;;;;5063488;28;20669;-67
2022/08/31 09:06:56;;;;;;;3.60;1.00;;;24.70;79.20;;;;;;5071787;28;20600;-67
2022/08/31 09:09:33;;;;;;;1.67;1.58;;;24.90;77.90;;;;;;5069211;28;20205;-67
2022/08/31 09:12:23;;;;;;;2.60;1.10;;;25.20;77.20;;;;;;5069191;28;20250;-66
2022/08/31 09:15:06;;;;;;;0.77;0.65;;;25.40;77.20;;;;;;5072043;28;20199;-66
2022/08/31 09:17:41;;;;;;;1.13;0.68;;;25.60;75.20;;;;;;5070298;28;20201;-69
2022/08/31 09:20:12;;;;;;;2.40;0.47;;;25.80;71.50;;;;;;5068430;28;20220;-66
2022/08/31 09:22:45;;;;;;;0.85;0.60;;;26.00;69.30;;;;;;5069053;28;20268;-66
2022/08/31 09:25:14;;;;;;;2.33;0.70;;;26.20;67.70;;;;;;5067734;28;20549;-66
2022/08/31 09:27:45;;;;;;;0.63;0.60;;;26.30;66.90;;;;;;5068396;28;20216;-67
2022/08/31 09:30:16;;;;;;;1.35;0.75;;;26.50;67.90;;;;;;5065411;28;20228;-67
2022/08/31 09:32:54;;;;;;;1.33;0.70;;;26.90;66.50;;;;;;5067041;28;20623;-66
2022/08/31 09:35:35;;;;;;;1.88;1.10;;;27.20;63.70;;;;;;5063871;28;20237;-66
2022/08/31 09:38:08;;;;;;;1.30;0.60;;;27.30;63.00;;;;;;5062446;28;20202;-65
2022/08/31 09:40:39;;;;;;;0.40;0.40;;;27.50;62.30;;;;;;5069655;28;20206;-66
2022/08/31 09:43:09;;;;;;;2.15;0.40;;;27.60;58.80;;;;;;5066484;28;20220;-67
2022/08/31 09:45:41;;;;;;;2.10;0.63;;;27.60;60.70;;;;;;5062589;28;20340;-67
2022/08/31 09:48:08;;;;;;;0.63;0.40;;;27.90;59.00;;;;;;5069225;28;20209;-68
2022/08/31 09:50:43;;;;;;;1.23;0.70;;;28.00;57.70;;;;;;5069544;28;20212;-65
2022/08/31 09:56:13;;;;;;;0.63;0.63;;;28.00;56.30;;;;;;5067809;28;20579;-67
2022/08/31 09:58:41;;;;;;;0.90;0.45;;;28.20;55.00;;;;;;5068691;28;20663;-64
2022/08/31 10:01:14;;;;;;;1.05;0.60;;;28.60;54.80;;;;;;5068615;28;20210;-65
2022/08/31 10:03:46;;;;;;;0.93;0.40;;;29.10;53.80;;;;;;5064792;28;20668;-65
2022/08/31 10:06:40;;;;;;;0.93;0.40;;;29.30;52.10;;;;;;5069752;28;20245;-66
2022/08/31 10:09:14;;;;;;;1.45;0.65;;;29.60;51.60;;;;;;5068097;28;20262;-65
2022/08/31 10:11:44;;;;;;;0.55;0.50;;;29.70;50.70;;;;;;5067767;28;20213;-65
2022/08/31 10:14:21;;;;;;;1.27;0.55;;;29.60;50.00;;;;;;5071040;28;20585;-64
2022/08/31 10:16:55;;;;;;;1.10;0.57;;;29.60;50.10;;;;;;5060945;28;20300;-65
2022/08/31 10:19:33;;;;;;;0.60;0.55;;;29.70;49.00;;;;;;5067879;28;20544;-64
2022/08/31 10:22:06;;;;;;;0.57;0.35;;;30.00;48.80;;;;;;5060976;28;20483;-64
2022/08/31 10:24:38;;;;;;;1.25;0.57;;;30.20;47.40;;;;;;5061864;28;20212;-66
2022/08/31 10:27:15;;;;;;;1.15;0.60;;;30.40;48.00;;;;;;5060277;28;20220;-66
2022/08/31 10:29:49;;;;;;;1.25;0.63;;;30.60;47.10;;;;;;5063345;28;20197;-65
2022/08/31 10:32:29;;;;;;;1.02;0.85;;;31.00;45.10;;;;;;5061112;28;20210;-66
2022/08/31 10:35:04;;;;;;;0.68;0.68;;;31.30;44.90;;;;;;5061469;28;20561;-65
2022/08/31 10:37:51;;;;;;;2.75;0.50;;;31.70;44.70;;;;;;5062335;28;20293;-65
2022/08/31 10:40:23;;;;;;;6.00;0.95;;;31.80;43.70;;;;;;5067045;28;20205;-66
2022/08/31 10:42:58;;;;;;;1.20;1.00;;;31.80;43.80;;;;;;5063375;28;20205;-66
2022/08/31 10:45:28;;;;;;;0.50;0.50;;;31.60;44.00;;;;;;5066854;28;20287;-67
2022/08/31 10:47:56;;;;;;;1.85;0.63;;;31.10;43.00;;;;;;5069698;28;20205;-66
2022/08/31 10:50:29;;;;;;;0.60;0.40;;;31.20;43.90;;;;;;5069726;28;20205;-67
2022/08/31 10:53:12;;;;;;;1.20;0.70;;;31.10;43.90;;;;;;5057088;28;20838;-71
2022/08/31 10:55:48;;;;;;;0.93;0.50;;;31.10;43.70;;;;;;5058363;28;20205;-67
2022/08/31 10:58:24;;;;;;;0.47;0.45;;;30.90;43.40;;;;;;5065524;28;20193;-68
2022/08/31 11:00:56;;;;;;;3.60;0.60;;;30.80;44.30;;;;;;5066639;28;20216;-66
2022/08/31 11:03:44;;;;;;;1.08;0.60;;;30.60;44.50;;;;;;5060316;28;20620;-68
2022/08/31 11:06:18;;;;;;;1.52;0.50;;;30.50;44.70;;;;;;5056000;28;20217;-68
2022/08/31 11:08:56;;;;;;;1.40;0.85;;;30.30;45.00;;;;;;5061370;28;20581;-68
2022/08/31 11:11:34;;;;;;;0.73;0.70;;;30.20;44.90;;;;;;5065211;28;20285;-67
2022/08/31 11:14:29;;;;;;;1.02;0.60;;;30.20;45.30;;;;;;5067637;28;20208;-67
2022/08/31 11:17:18;;;;;;;1.85;0.80;;;30.00;45.50;;;;;;5070202;28;20688;-68
2022/08/31 11:20:15;;;;;;;0.73;0.50;;;29.90;46.30;;;;;;5069899;28;20558;-69
2022/08/31 11:23:05;;;;;;;1.25;0.60;;;30.10;45.90;;;;;;5068895;28;20233;-68
2022/08/31 11:26:11;;;;;;;2.75;0.50;;;30.20;45.20;;;;;;5068865;28;20228;-68
2022/08/31 11:28:47;;;;;;;1.55;0.45;;;30.50;45.30;;;;;;5071090;28;20657;-68
2022/08/31 11:31:22;;;;;;;1.05;0.50;;;30.90;45.20;;;;;;5069841;28;20200;-69
2022/08/31 11:33:52;;;;;;;0.70;0.70;;;31.30;44.60;;;;;;5068689;28;20266;-68
2022/08/31 11:36:41;;;;;;;0.85;0.50;;;31.60;43.70;;;;;;5066484;28;20282;-66
2022/08/31 11:39:36;;;;;;;1.73;0.52;;;31.70;43.40;;;;;;5070210;28;20208;-66
2022/08/31 11:42:11;;;;;;;0.77;0.50;;;32.10;43.10;;;;;;5065669;28;20205;-66
2022/08/31 11:44:59;;;;;;;1.73;0.52;;;32.30;42.90;;;;;;5069412;28;20637;-67
2022/08/31 11:47:36;;;;;;;0.45;0.45;;;32.30;42.30;;;;;;5062919;28;20301;-67
2022/08/31 11:50:08;;;;;;;1.25;0.82;;;32.40;42.90;;;;;;5066737;28;20687;-68
2022/08/31 11:52:46;;;;;;;0.98;0.50;;;32.50;42.70;;;;;;5065432;28;20197;-66
2022/08/31 11:55:22;;;;;;;0.80;0.60;;;32.40;42.70;;;;;;5067264;28;20241;-66
2022/08/31 11:58:18;;;;;;;0.60;0.60;;;32.00;42.60;;;;;;5063552;28;20201;-67
2022/08/31 12:00:50;;;;;;;1.60;0.40;;;31.40;43.00;;;;;;5067165;28;20209;-66
2022/08/31 12:03:44;;;;;;;1.27;0.60;;;30.80;43.60;;;;;;5066887;28;20212;-65
2022/08/31 12:06:27;;;;;;;1.80;0.60;;;30.10;44.10;;;;;;5067251;28;20261;-66
2022/08/31 12:09:08;;;;;;;0.75;0.60;;;29.60;44.50;;;;;;5065257;28;20669;-66
2022/08/31 12:11:40;;;;;;;1.02;0.70;;;29.10;45.20;;;;;;5062554;28;20198;-65
2022/08/31 12:14:20;;;;;;;2.05;0.70;;;29.10;45.90;;;;;;5066625;28;20209;-67
2022/08/31 12:16:58;;;;;;;0.52;0.50;;;29.20;46.20;;;;;;5060959;28;20212;-68
2022/08/31 12:25:41;;;;;;;0.88;0.50;;;29.20;46.00;;;;;;5064284;28;20197;-65
2022/08/31 12:28:17;;;;;;;0.75;0.50;;;29.00;46.20;;;;;;5065384;28;20202;-65
2022/08/31 12:30:51;;;;;;;1.55;0.77;;;28.80;46.40;;;;;;5071399;28;20677;-66
2022/08/31 12:33:21;;;;;;;6.35;0.60;;;28.50;46.70;;;;;;5069532;28;20262;-66
2022/08/31 12:35:52;;;;;;;1.25;0.60;;;28.20;46.90;;;;;;5068622;28;20233;-66
2022/08/31 12:38:21;;;;;;;0.73;0.70;;;27.90;47.20;;;;;;5063770;28;20209;-65
2022/08/31 12:40:50;;;;;;;2.25;0.82;;;27.90;47.70;;;;;;5062788;28;20640;-65
2022/08/31 12:43:20;;;;;;;1.77;0.55;;;28.30;48.10;;;;;;5064107;28;20213;-65
2022/08/31 12:46:19;;;;;;;1.75;0.50;;;28.60;47.70;;;;;;5070732;28;20212;-66
2022/08/31 12:49:14;;;;;;;0.50;0.43;;;29.00;47.60;;;;;;5070733;28;20201;-65
2022/08/31 12:51:45;;;;;;;0.68;0.43;;;29.30;46.80;;;;;;5071095;28;20201;-66
2022/08/31 12:54:39;;;;;;;1.25;0.60;;;29.40;45.90;;;;;;5060946;28;20233;-65
2022/08/31 12:57:13;;;;;;;1.75;0.60;;;29.60;46.30;;;;;;5067054;28;20197;-65
2022/08/31 12:59:51;;;;;;;0.70;0.60;;;29.40;45.50;;;;;;5065143;28;20214;-65
2022/08/31 13:02:20;;;;;;;1.45;0.80;;;29.00;45.80;;;;;;5068758;28;20201;-66
2022/08/31 13:04:48;;;;;;;1.55;0.70;;;28.60;45.90;;;;;;5072308;28;20213;-66
2022/08/31 13:07:20;;;;;;;1.55;0.80;;;28.30;46.20;;;;;;5071182;28;20241;-66
2022/08/31 13:09:47;;;;;;;1.58;0.68;;;28.00;46.90;;;;;;5071610;28;20202;-67
2022/08/31 13:12:23;;;;;;;0.93;0.60;;;27.60;47.40;;;;;;5071404;28;20662;-65
2022/08/31 13:14:49;;;;;;;2.15;0.90;;;27.30;47.80;;;;;;5071886;28;20684;-66
2022/08/31 13:17:20;;;;;;;1.45;0.73;;;26.80;48.50;;;;;;5067288;28;20224;-66
2022/08/31 13:19:50;;;;;;;2.10;0.70;;;26.60;49.20;;;;;;5071306;28;20258;-68
2022/08/31 13:22:28;;;;;;;1.80;0.75;;;26.50;49.70;;;;;;5067906;28;20590;-67